Time;durP1;ratioP1;P1;durP2;ratioP2;P2;SDS_P1;SDS_P2;PMS_P1;PMS_P2;Temp;Humidity;BMP_temperature;BMP_pressure;BME280_temperature;BME280_humidity;BME280_pressure;Samples;Min_cycle;Max_cycle;Signal;HPM_P1;HPM_P2
2023/04/15 00:01:00;;;;;;;3.60;1.90;;;;;;;;;;4966558;28;20449;-92
2023/04/15 00:03:27;;;;;;;5.07;1.93;;;;;;;;;;4966371;28;20462;-92
2023/04/15 00:05:53;;;;;;;5.10;2.07;;;;;;;;;;4980113;28;20461;-93
2023/04/15 00:08:19;;;;;;;4.17;2.27;;;;;;;;;;4987525;28;20975;-91
2023/04/15 00:10:48;;;;;;;6.80;2.90;;;;;;;;;;4965181;28;20464;-92
2023/04/15 00:13:14;;;;;;;4.60;2.87;;;;;;;;;;4970242;28;20430;-92
2023/04/15 00:15:41;;;;;;;6.83;2.70;;;;;;;;;;4965089;28;21130;-92
2023/04/15 00:18:08;;;;;;;2.93;2.43;;;;;;;;;;4971279;28;20433;-92
2023/04/15 00:20:35;;;;;;;6.10;2.63;;;;;;;;;;4968647;28;20953;-91
2023/04/15 00:23:02;;;;;;;3.73;2.50;;;;;;;;;;4971951;28;20823;-92
2023/04/15 00:25:29;;;;;;;6.33;3.40;;;;;;;;;;4969680;28;20433;-94
2023/04/15 00:27:55;;;;;;;5.10;2.37;;;;;;;;;;4973541;28;20522;-92
2023/04/15 00:30:21;;;;;;;3.20;2.00;;;;;;;;;;4970185;28;20496;-91
2023/04/15 00:32:48;;;;;;;6.20;2.80;;;;;;;;;;4969872;28;21152;-92
2023/04/15 00:35:14;;;;;;;6.17;2.30;;;;;;;;;;4970988;28;20421;-91
2023/04/15 00:37:40;;;;;;;3.60;2.30;;;;;;;;;;4967335;28;20476;-91
2023/04/15 00:40:06;;;;;;;6.33;2.77;;;;;;;;;;4969610;28;20463;-91
2023/04/15 00:42:33;;;;;;;4.57;2.80;;;;;;;;;;4964814;28;20444;-92
2023/04/15 00:44:59;;;;;;;5.70;2.70;;;;;;;;;;4962753;28;20453;-92
2023/04/15 00:47:26;;;;;;;3.13;1.90;;;;;;;;;;4981970;28;20437;-92
2023/04/15 00:49:51;;;;;;;3.37;2.40;;;;;;;;;;4973678;28;20590;-91
2023/04/15 00:52:18;;;;;;;4.00;1.97;;;;;;;;;;4966262;28;20436;-91
2023/04/15 00:54:44;;;;;;;3.67;2.77;;;;;;;;;;4965587;28;20430;-90
2023/04/15 00:57:10;;;;;;;5.10;2.23;;;;;;;;;;4981101;28;20437;-91
2023/04/15 00:59:36;;;;;;;9.33;2.83;;;;;;;;;;4988307;28;20540;-91
2023/04/15 01:02:02;;;;;;;7.70;3.50;;;;;;;;;;4967124;28;21279;-91
2023/04/15 01:04:28;;;;;;;5.53;2.00;;;;;;;;;;4969744;28;20488;-91
2023/04/15 01:06:54;;;;;;;3.93;2.40;;;;;;;;;;4961767;28;20936;-91
2023/04/15 01:09:21;;;;;;;3.20;2.40;;;;;;;;;;4982418;28;20936;-91
2023/04/15 01:11:47;;;;;;;4.23;2.90;;;;;;;;;;4967985;28;20436;-91
2023/04/15 01:14:13;;;;;;;3.37;2.10;;;;;;;;;;4983018;28;20437;-91
2023/04/15 01:16:39;;;;;;;4.97;2.60;;;;;;;;;;4965614;28;20432;-90
2023/04/15 01:19:08;;;;;;;5.73;2.60;;;;;;;;;;4973380;28;20788;-90
2023/04/15 01:21:38;;;;;;;5.43;3.27;;;;;;;;;;4968781;28;20425;-92
2023/04/15 01:24:05;;;;;;;5.33;2.50;;;;;;;;;;4978814;28;20858;-92
2023/04/15 01:26:32;;;;;;;2.83;1.90;;;;;;;;;;4967445;28;20470;-91
2023/04/15 01:28:58;;;;;;;3.43;2.10;;;;;;;;;;4992475;28;20445;-92
2023/04/15 01:31:24;;;;;;;2.67;2.37;;;;;;;;;;4969874;28;20487;-92
2023/04/15 01:33:50;;;;;;;6.33;2.80;;;;;;;;;;4978983;28;20528;-89
2023/04/15 01:36:16;;;;;;;4.60;2.10;;;;;;;;;;4965557;28;20498;-91
2023/04/15 01:38:45;;;;;;;2.80;1.93;;;;;;;;;;4967897;28;20513;-90
2023/04/15 01:41:11;;;;;;;6.00;2.00;;;;;;;;;;4966652;28;20433;-91
2023/04/15 01:43:37;;;;;;;2.80;2.27;;;;;;;;;;4973672;28;20428;-91
2023/04/15 01:46:03;;;;;;;6.07;2.10;;;;;;;;;;4970812;28;20492;-91
2023/04/15 01:48:29;;;;;;;3.53;2.40;;;;;;;;;;4972223;28;20433;-91
2023/04/15 01:50:56;;;;;;;4.77;2.17;;;;;;;;;;4982065;28;21147;-91
2023/04/15 01:53:23;;;;;;;3.47;2.30;;;;;;;;;;4963232;28;20425;-90
2023/04/15 01:55:50;;;;;;;5.60;2.67;;;;;;;;;;4973152;28;20516;-91
2023/04/15 01:58:16;;;;;;;4.47;3.20;;;;;;;;;;4982830;28;20443;-90
2023/04/15 02:00:42;;;;;;;4.63;2.57;;;;;;;;;;4973282;28;20420;-90
2023/04/15 02:03:08;;;;;;;5.13;2.40;;;;;;;;;;4969586;28;20448;-91
2023/04/15 02:05:35;;;;;;;2.30;2.10;;;;;;;;;;4977313;28;20464;-91
2023/04/15 02:08:01;;;;;;;3.80;2.30;;;;;;;;;;4960774;28;20457;-91
2023/04/15 02:10:27;;;;;;;6.47;2.77;;;;;;;;;;4977659;28;20469;-90
2023/04/15 02:12:53;;;;;;;2.30;2.10;;;;;;;;;;4972577;28;20436;-90
2023/04/15 02:15:19;;;;;;;4.83;2.63;;;;;;;;;;4969217;28;20429;-91
2023/04/15 02:17:49;;;;;;;3.10;2.30;;;;;;;;;;4964610;28;20457;-90
2023/04/15 02:20:15;;;;;;;5.73;2.60;;;;;;;;;;4968319;28;20436;-90
2023/04/15 02:22:41;;;;;;;6.10;2.63;;;;;;;;;;4962408;28;20519;-90
2023/04/15 02:25:08;;;;;;;4.53;2.10;;;;;;;;;;4965352;28;20477;-91
2023/04/15 02:27:35;;;;;;;1.87;1.77;;;;;;;;;;4977280;28;20433;-91
2023/04/15 02:30:01;;;;;;;4.53;2.73;;;;;;;;;;4971469;28;20461;-91
2023/04/15 02:32:27;;;;;;;3.63;1.90;;;;;;;;;;4979757;28;20444;-92
2023/04/15 02:34:54;;;;;;;3.03;1.80;;;;;;;;;;4983005;28;20465;-91
2023/04/15 02:37:20;;;;;;;5.13;2.27;;;;;;;;;;4980995;28;20448;-91
2023/04/15 02:39:46;;;;;;;2.37;1.90;;;;;;;;;;4973645;28;20441;-90
2023/04/15 02:42:12;;;;;;;3.17;2.87;;;;;;;;;;4971352;28;20465;-91
2023/04/15 02:44:38;;;;;;;3.97;2.20;;;;;;;;;;4971689;28;20988;-91
2023/04/15 02:47:05;;;;;;;3.27;2.60;;;;;;;;;;4968171;28;20488;-91
2023/04/15 02:49:31;;;;;;;4.83;2.03;;;;;;;;;;4967045;28;20460;-90
2023/04/15 02:51:58;;;;;;;5.20;2.33;;;;;;;;;;4963844;28;20940;-90
2023/04/15 02:54:27;;;;;;;3.87;1.70;;;;;;;;;;4965836;28;20440;-90
2023/04/15 02:56:55;;;;;;;3.40;2.30;;;;;;;;;;4961960;28;20507;-90
2023/04/15 02:59:21;;;;;;;7.30;2.37;;;;;;;;;;4973945;28;20444;-91
2023/04/15 03:01:47;;;;;;;4.90;2.13;;;;;;;;;;4984067;28;20428;-90
2023/04/15 03:04:13;;;;;;;4.30;2.37;;;;;;;;;;4962691;28;20465;-91
2023/04/15 03:06:39;;;;;;;3.27;1.97;;;;;;;;;;4973910;28;20507;-92
2023/04/15 03:09:05;;;;;;;3.73;2.13;;;;;;;;;;4963455;28;20438;-91
2023/04/15 03:11:32;;;;;;;7.10;4.70;;;;;;;;;;4968911;28;20477;-90
2023/04/15 03:13:58;;;;;;;4.27;1.80;;;;;;;;;;4960512;28;20451;-91
2023/04/15 03:16:24;;;;;;;2.67;2.13;;;;;;;;;;4964662;28;20468;-91
2023/04/15 03:18:51;;;;;;;5.33;2.60;;;;;;;;;;4971309;28;20456;-95
2023/04/15 03:21:18;;;;;;;3.37;1.60;;;;;;;;;;4971651;28;20425;-90
2023/04/15 03:23:44;;;;;;;4.10;2.10;;;;;;;;;;4974025;28;22360;-90
2023/04/15 03:26:10;;;;;;;2.10;1.30;;;;;;;;;;4974275;28;20934;-92
2023/04/15 03:28:36;;;;;;;2.57;1.80;;;;;;;;;;4966523;28;20440;-92
2023/04/15 03:31:02;;;;;;;4.50;2.10;;;;;;;;;;4975474;28;20527;-92
2023/04/15 03:33:28;;;;;;;2.63;1.70;;;;;;;;;;4961433;28;20961;-93
2023/04/15 03:35:54;;;;;;;2.60;2.30;;;;;;;;;;4990299;28;20431;-91
2023/04/15 03:38:20;;;;;;;3.50;2.47;;;;;;;;;;4982388;28;20537;-91
2023/04/15 03:40:46;;;;;;;4.50;1.97;;;;;;;;;;4968070;28;20433;-91
2023/04/15 03:43:12;;;;;;;6.03;2.40;;;;;;;;;;4980195;28;20430;-91
2023/04/15 03:45:38;;;;;;;3.07;2.10;;;;;;;;;;4977766;28;20448;-91
2023/04/15 03:48:05;;;;;;;3.00;1.83;;;;;;;;;;4984052;28;20806;-91
2023/04/15 03:50:31;;;;;;;3.07;1.80;;;;;;;;;;4971673;28;20457;-91
2023/04/15 03:52:57;;;;;;;4.00;2.00;;;;;;;;;;4966366;28;20451;-91
2023/04/15 03:55:23;;;;;;;3.90;2.27;;;;;;;;;;4968170;28;20435;-91
2023/04/15 03:57:49;;;;;;;3.07;2.43;;;;;;;;;;4965482;28;20448;-91
2023/04/15 04:00:15;;;;;;;2.70;2.10;;;;;;;;;;4959935;28;20528;-90
2023/04/15 04:02:41;;;;;;;5.93;2.23;;;;;;;;;;4968718;28;20444;-91
2023/04/15 04:05:07;;;;;;;3.00;2.20;;;;;;;;;;4983163;28;20834;-92
2023/04/15 04:07:33;;;;;;;3.47;2.37;;;;;;;;;;4972234;28;20485;-91
2023/04/15 04:09:59;;;;;;;4.50;2.33;;;;;;;;;;4993601;28;20495;-91
2023/04/15 04:12:25;;;;;;;11.43;3.20;;;;;;;;;;4973622;28;20807;-92
2023/04/15 04:14:51;;;;;;;3.53;2.47;;;;;;;;;;4969855;28;20429;-91
2023/04/15 04:17:17;;;;;;;5.53;2.57;;;;;;;;;;4976540;28;20476;-91
2023/04/15 04:19:43;;;;;;;7.90;2.70;;;;;;;;;;4971709;28;20452;-90
2023/04/15 04:22:10;;;;;;;2.50;2.00;;;;;;;;;;4968515;28;20441;-90
2023/04/15 04:24:36;;;;;;;3.17;2.47;;;;;;;;;;4962998;28;20433;-89
2023/04/15 04:27:02;;;;;;;6.17;2.03;;;;;;;;;;4987199;28;20444;-90
2023/04/15 04:29:28;;;;;;;5.50;2.10;;;;;;;;;;4970574;28;20460;-91
2023/04/15 04:31:54;;;;;;;2.80;2.07;;;;;;;;;;4965901;28;20815;-90
2023/04/15 04:34:20;;;;;;;2.73;2.07;;;;;;;;;;4982407;28;20438;-91
2023/04/15 04:36:46;;;;;;;2.60;2.00;;;;;;;;;;4943118;29;20434;-90
2023/04/15 04:39:12;;;;;;;5.80;2.13;;;;;;;;;;4930909;29;20455;-89
2023/04/15 04:41:38;;;;;;;4.90;2.17;;;;;;;;;;4971373;28;20603;-90
2023/04/15 04:44:04;;;;;;;6.03;2.33;;;;;;;;;;4944160;28;20978;-91
2023/04/15 04:46:30;;;;;;;2.20;2.00;;;;;;;;;;4945845;28;20442;-90
2023/04/15 04:48:56;;;;;;;5.53;2.93;;;;;;;;;;4959471;28;20518;-89
2023/04/15 04:51:22;;;;;;;2.90;1.93;;;;;;;;;;4955397;28;20491;-90
2023/04/15 04:53:48;;;;;;;3.87;2.63;;;;;;;;;;4958871;28;20463;-90
2023/04/15 04:56:14;;;;;;;3.33;2.10;;;;;;;;;;4963425;28;20447;-90
2023/04/15 04:58:40;;;;;;;4.93;2.70;;;;;;;;;;4957907;28;20451;-91
2023/04/15 05:01:06;;;;;;;9.53;2.97;;;;;;;;;;4958332;28;20655;-89
2023/04/15 05:03:32;;;;;;;2.37;2.17;;;;;;;;;;4945745;28;20520;-90
2023/04/15 05:05:58;;;;;;;4.30;2.23;;;;;;;;;;4955664;28;20531;-91
2023/04/15 05:08:24;;;;;;;5.30;2.20;;;;;;;;;;4982188;28;20502;-90
2023/04/15 05:10:50;;;;;;;6.07;2.40;;;;;;;;;;4960119;28;20495;-90
2023/04/15 05:13:16;;;;;;;2.90;1.57;;;;;;;;;;4964698;28;20494;-90
2023/04/15 05:15:43;;;;;;;2.80;2.03;;;;;;;;;;4970285;28;21039;-92
2023/04/15 05:18:09;;;;;;;6.40;2.20;;;;;;;;;;4973735;28;20440;-90
2023/04/15 05:20:35;;;;;;;3.67;2.07;;;;;;;;;;4970559;28;20476;-89
2023/04/15 05:23:01;;;;;;;8.23;2.60;;;;;;;;;;4971760;28;20819;-91
2023/04/15 05:25:27;;;;;;;4.33;1.90;;;;;;;;;;4978735;28;20447;-90
2023/04/15 05:27:53;;;;;;;4.47;2.10;;;;;;;;;;4971417;28;20879;-90
2023/04/15 05:30:19;;;;;;;6.43;2.57;;;;;;;;;;4968886;28;20468;-89
2023/04/15 05:32:45;;;;;;;3.23;1.97;;;;;;;;;;4973509;28;20429;-89
2023/04/15 05:35:11;;;;;;;2.87;1.97;;;;;;;;;;4982253;28;20519;-89
2023/04/15 05:37:38;;;;;;;6.70;2.30;;;;;;;;;;4967628;28;20461;-89
2023/04/15 05:40:04;;;;;;;4.07;2.53;;;;;;;;;;4977395;28;20449;-89
2023/04/15 05:42:30;;;;;;;4.47;2.20;;;;;;;;;;4968111;28;20461;-89
2023/04/15 05:44:56;;;;;;;5.83;3.33;;;;;;;;;;4963702;28;20504;-90
2023/04/15 05:47:22;;;;;;;5.83;2.67;;;;;;;;;;4963185;28;20463;-89
2023/04/15 05:49:48;;;;;;;5.23;2.83;;;;;;;;;;4969000;28;20457;-89
2023/04/15 05:52:14;;;;;;;5.67;2.40;;;;;;;;;;4967062;28;20450;-90
2023/04/15 05:54:40;;;;;;;7.23;3.20;;;;;;;;;;4984010;28;20731;-91
2023/04/15 05:57:07;;;;;;;7.00;3.03;;;;;;;;;;4974298;28;20442;-90
2023/04/15 05:59:33;;;;;;;7.10;3.17;;;;;;;;;;4966755;28;20469;-89
2023/04/15 06:01:59;;;;;;;7.40;3.40;;;;;;;;;;4973979;28;20793;-90
2023/04/15 06:04:25;;;;;;;5.33;3.60;;;;;;;;;;4972291;28;20504;-91
2023/04/15 06:06:52;;;;;;;4.17;2.90;;;;;;;;;;4992843;28;20740;-89
2023/04/15 06:09:18;;;;;;;5.87;2.70;;;;;;;;;;4967456;28;21248;-90
2023/04/15 06:11:44;;;;;;;5.70;3.40;;;;;;;;;;4971950;28;20455;-91
2023/04/15 06:14:10;;;;;;;5.93;3.10;;;;;;;;;;4961234;28;20457;-89
2023/04/15 06:16:36;;;;;;;11.60;4.43;;;;;;;;;;4964544;28;20425;-89
2023/04/15 06:19:02;;;;;;;5.80;3.53;;;;;;;;;;4991173;28;20621;-90
2023/04/15 06:21:30;;;;;;;8.20;4.20;;;;;;;;;;4975974;28;20484;-89
2023/04/15 06:23:58;;;;;;;4.23;3.13;;;;;;;;;;4961878;28;20441;-90
2023/04/15 06:26:24;;;;;;;5.57;2.70;;;;;;;;;;4958358;28;20433;-89
2023/04/15 06:28:50;;;;;;;3.43;3.13;;;;;;;;;;4978930;28;20483;-90
2023/04/15 06:31:16;;;;;;;4.23;2.97;;;;;;;;;;4997465;28;20515;-90
2023/04/15 06:33:42;;;;;;;10.73;3.83;;;;;;;;;;4964858;28;20860;-90
2023/04/15 06:36:08;;;;;;;4.60;2.57;;;;;;;;;;4975083;28;20437;-90
2023/04/15 06:38:34;;;;;;;4.60;2.80;;;;;;;;;;4980768;28;20468;-90
2023/04/15 06:41:00;;;;;;;5.53;3.17;;;;;;;;;;4980243;28;20500;-90
2023/04/15 06:43:26;;;;;;;7.83;3.67;;;;;;;;;;4959206;28;20434;-90
2023/04/15 06:45:52;;;;;;;6.70;3.60;;;;;;;;;;4979910;28;20448;-89
2023/04/15 06:48:18;;;;;;;3.97;2.30;;;;;;;;;;4969333;28;20433;-90
2023/04/15 06:50:44;;;;;;;3.73;2.90;;;;;;;;;;4970078;28;20461;-89
2023/04/15 06:53:10;;;;;;;5.47;3.23;;;;;;;;;;4964035;28;20480;-87
2023/04/15 06:55:36;;;;;;;10.10;3.47;;;;;;;;;;4987324;28;20420;-89
2023/04/15 06:58:03;;;;;;;6.90;3.60;;;;;;;;;;4981083;28;20866;-90
2023/04/15 07:00:29;;;;;;;7.70;4.17;;;;;;;;;;4969488;28;20437;-90
2023/04/15 07:02:55;;;;;;;5.77;3.87;;;;;;;;;;4973298;28;20437;-90
2023/04/15 07:05:21;;;;;;;12.83;4.07;;;;;;;;;;4972782;28;20455;-91
2023/04/15 07:07:47;;;;;;;10.67;4.50;;;;;;;;;;4968904;28;20516;-88
2023/04/15 07:10:14;;;;;;;7.47;4.00;;;;;;;;;;4968906;28;20527;-89
2023/04/15 07:12:40;;;;;;;4.77;3.50;;;;;;;;;;4974276;28;20440;-89
2023/04/15 07:15:06;;;;;;;6.53;3.80;;;;;;;;;;4971190;28;20428;-90
2023/04/15 07:17:33;;;;;;;6.37;4.30;;;;;;;;;;4972165;28;20460;-90
2023/04/15 07:19:59;;;;;;;5.37;3.53;;;;;;;;;;4973016;28;20429;-89
2023/04/15 07:22:25;;;;;;;4.37;2.87;;;;;;;;;;4983715;28;20432;-89
2023/04/15 07:24:51;;;;;;;5.83;3.93;;;;;;;;;;4968422;28;20481;-89
2023/04/15 07:27:17;;;;;;;5.13;3.63;;;;;;;;;;4973478;28;20431;-89
2023/04/15 07:29:43;;;;;;;4.47;2.63;;;;;;;;;;4973317;28;20469;-89
2023/04/15 07:32:09;;;;;;;6.17;3.67;;;;;;;;;;4973560;28;20494;-90
2023/04/15 07:34:36;;;;;;;4.90;3.77;;;;;;;;;;4970373;28;20494;-90
2023/04/15 07:37:02;;;;;;;5.10;3.70;;;;;;;;;;4975886;28;20547;-91
2023/04/15 07:39:28;;;;;;;14.30;4.20;;;;;;;;;;4973552;28;20507;-90
2023/04/15 07:41:55;;;;;;;4.17;3.00;;;;;;;;;;4976396;28;20564;-91
2023/04/15 07:44:21;;;;;;;4.40;2.90;;;;;;;;;;4967429;28;20462;-92
2023/04/15 07:46:47;;;;;;;7.47;3.00;;;;;;;;;;4980221;28;20943;-90
2023/04/15 07:49:13;;;;;;;5.67;2.93;;;;;;;;;;4987148;28;20921;-90
2023/04/15 07:51:39;;;;;;;6.00;3.50;;;;;;;;;;4970474;28;20464;-90
2023/04/15 07:54:05;;;;;;;6.63;3.13;;;;;;;;;;4981243;28;20516;-90
2023/04/15 07:56:31;;;;;;;4.60;2.97;;;;;;;;;;4984347;28;20493;-89
2023/04/15 07:58:57;;;;;;;3.50;2.87;;;;;;;;;;4969668;28;20532;-87
2023/04/15 08:01:24;;;;;;;3.83;2.80;;;;;;;;;;4981603;28;20423;-89
2023/04/15 08:03:50;;;;;;;4.90;2.70;;;;;;;;;;4968697;28;20430;-91
2023/04/15 08:06:16;;;;;;;5.43;2.90;;;;;;;;;;4960651;28;20447;-86
2023/04/15 08:08:42;;;;;;;4.63;2.53;;;;;;;;;;4963553;28;20437;-91
2023/04/15 08:11:08;;;;;;;6.63;2.00;;;;;;;;;;4976499;28;20479;-89
2023/04/15 08:13:34;;;;;;;6.60;2.67;;;;;;;;;;4961972;28;20437;-89
2023/04/15 08:16:19;;;;;;;4.00;1.87;;;;;;;;;;4977924;28;20457;-88
2023/04/15 08:18:46;;;;;;;2.63;1.50;;;;;;;;;;4991239;28;20471;-88
2023/04/15 08:21:12;;;;;;;3.03;1.97;;;;;;;;;;4979516;28;20865;-87
2023/04/15 08:23:38;;;;;;;2.70;1.40;;;;;;;;;;4970649;28;20511;-88
2023/04/15 08:26:05;;;;;;;4.07;1.67;;;;;;;;;;4979379;28;20437;-89
2023/04/15 08:28:31;;;;;;;3.80;2.23;;;;;;;;;;4972067;28;20447;-90
2023/04/15 08:31:22;;;;;;;2.80;2.17;;;;;;;;;;4970990;28;20476;-92
2023/04/15 08:34:41;;;;;;;1.97;1.40;;;;;;;;;;4981002;28;20440;-92
2023/04/15 08:37:10;;;;;;;2.73;1.30;;;;;;;;;;5005141;28;20430;-96
2023/04/15 08:39:36;;;;;;;7.73;1.90;;;;;;;;;;4983524;28;20420;-95
2023/04/15 08:42:06;;;;;;;3.80;1.90;;;;;;;;;;4973120;28;20472;-94
2023/04/15 08:44:37;;;;;;;2.30;1.43;;;;;;;;;;4974634;28;20462;-94
2023/04/15 08:47:04;;;;;;;2.17;1.53;;;;;;;;;;4978634;28;20517;-94
2023/04/15 08:49:30;;;;;;;6.70;2.27;;;;;;;;;;4970108;28;20493;-95
2023/04/15 08:51:58;;;;;;;4.53;2.30;;;;;;;;;;4983689;28;20433;-91
2023/04/15 08:54:24;;;;;;;5.23;2.10;;;;;;;;;;4967930;28;20449;-94
2023/04/15 08:56:50;;;;;;;2.87;1.70;;;;;;;;;;4979043;28;20429;-94
2023/04/15 08:59:16;;;;;;;3.53;2.20;;;;;;;;;;4966092;28;20426;-95
2023/04/15 09:01:47;;;;;;;3.40;2.17;;;;;;;;;;4998564;28;20459;-93
2023/04/15 09:50:59;;;;;;;3.50;2.73;;;;;;;;;;5009134;28;20479;-89
2023/04/15 09:53:25;;;;;;;4.83;2.37;;;;;;;;;;4984404;28;20551;-89
2023/04/15 09:55:51;;;;;;;4.40;2.47;;;;;;;;;;4993789;28;20507;-91
2023/04/15 09:58:19;;;;;;;4.47;2.03;;;;;;;;;;5008343;28;20428;-89
2023/04/15 10:00:46;;;;;;;5.30;3.03;;;;;;;;;;4984554;28;20537;-90
2023/04/15 10:03:13;;;;;;;3.30;2.50;;;;;;;;;;4960460;28;20907;-90
2023/04/15 10:05:39;;;;;;;4.20;2.87;;;;;;;;;;4944083;28;20497;-89
2023/04/15 10:08:05;;;;;;;3.27;2.90;;;;;;;;;;4942636;28;20441;-90
2023/04/15 10:10:32;;;;;;;7.70;2.90;;;;;;;;;;4939707;28;20461;-89
2023/04/15 10:12:58;;;;;;;6.37;2.60;;;;;;;;;;4949973;28;20445;-89
2023/04/15 10:15:24;;;;;;;11.00;2.50;;;;;;;;;;4959348;28;20520;-90
2023/04/15 10:17:50;;;;;;;2.40;2.03;;;;;;;;;;4956721;28;20422;-90
2023/04/15 10:20:17;;;;;;;4.90;3.10;;;;;;;;;;4957082;28;20480;-89
2023/04/15 10:22:44;;;;;;;4.50;3.23;;;;;;;;;;4940481;28;20430;-89
2023/04/15 10:25:10;;;;;;;3.77;3.10;;;;;;;;;;4943181;28;20485;-90
2023/04/15 10:27:36;;;;;;;5.60;2.83;;;;;;;;;;4957636;28;20755;-87
2023/04/15 10:30:02;;;;;;;4.80;3.13;;;;;;;;;;4958828;28;20544;-90
2023/04/15 10:32:28;;;;;;;3.13;2.63;;;;;;;;;;4957234;28;20539;-90
2023/04/15 10:34:54;;;;;;;4.77;3.00;;;;;;;;;;4966443;28;20925;-89
2023/04/15 10:37:36;;;;;;;6.27;3.47;;;;;;;;;;4945391;28;21154;-89
2023/04/15 10:40:22;;;;;;;7.87;2.90;;;;;;;;;;4960003;28;21075;-88
2023/04/15 10:42:48;;;;;;;3.37;2.53;;;;;;;;;;4945923;28;20493;-90
2023/04/15 10:45:18;;;;;;;5.00;2.90;;;;;;;;;;4949429;28;20479;-90
2023/04/15 10:47:44;;;;;;;4.87;3.63;;;;;;;;;;4966948;28;20406;-91
2023/04/15 10:50:10;;;;;;;3.20;2.90;;;;;;;;;;4979463;28;21295;-90
2023/04/15 10:52:37;;;;;;;6.03;2.97;;;;;;;;;;4988642;28;20477;-90
2023/04/15 10:55:03;;;;;;;6.07;3.27;;;;;;;;;;4986903;28;20425;-90
2023/04/15 10:57:39;;;;;;;4.30;3.40;;;;;;;;;;4999721;28;20446;-90
2023/04/15 11:00:10;;;;;;;5.80;3.03;;;;;;;;;;4981805;28;20481;-90
2023/04/15 11:02:48;;;;;;;3.80;3.33;;;;;;;;;;4996591;28;20932;-91
2023/04/15 11:05:15;;;;;;;4.83;3.13;;;;;;;;;;5013308;28;20431;-90
2023/04/15 11:07:45;;;;;;;4.07;2.80;;;;;;;;;;4982094;28;20475;-90
2023/04/15 11:10:19;;;;;;;4.77;2.70;;;;;;;;;;4995900;28;20487;-90
2023/04/15 11:12:45;;;;;;;4.40;3.20;;;;;;;;;;4996578;28;20986;-90
2023/04/15 11:15:30;;;;;;;4.43;2.27;;;;;;;;;;4981919;28;20424;-90
2023/04/15 11:17:56;;;;;;;6.87;3.37;;;;;;;;;;4995496;28;20432;-90
2023/04/15 11:20:23;;;;;;;5.73;3.37;;;;;;;;;;4978786;28;20440;-90
2023/04/15 11:22:56;;;;;;;4.40;2.93;;;;;;;;;;4981137;28;20432;-90
2023/04/15 11:25:23;;;;;;;3.93;2.50;;;;;;;;;;4998069;28;20468;-90
2023/04/15 11:27:49;;;;;;;5.10;3.23;;;;;;;;;;4981005;28;20440;-90
2023/04/15 11:30:20;;;;;;;4.90;2.73;;;;;;;;;;4998122;28;20455;-94
2023/04/15 11:32:47;;;;;;;5.87;3.00;;;;;;;;;;5000677;28;20443;-94
2023/04/15 11:35:13;;;;;;;3.03;2.70;;;;;;;;;;4988966;28;20517;-93
2023/04/15 11:37:39;;;;;;;3.70;3.30;;;;;;;;;;4987954;28;20436;-92
2023/04/15 11:40:06;;;;;;;4.07;2.80;;;;;;;;;;4984695;28;20440;-95
2023/04/15 11:42:32;;;;;;;4.80;2.83;;;;;;;;;;4987623;28;20436;-92
2023/04/15 11:45:10;;;;;;;8.37;3.80;;;;;;;;;;4991906;28;20507;-95
2023/04/15 11:47:37;;;;;;;4.80;3.37;;;;;;;;;;5005777;28;20435;-94
2023/04/15 11:50:15;;;;;;;5.63;2.73;;;;;;;;;;4987792;28;20467;-95
2023/04/15 11:52:42;;;;;;;5.23;3.67;;;;;;;;;;5017313;28;21228;-94
2023/04/15 11:55:08;;;;;;;5.37;3.90;;;;;;;;;;4989043;28;20435;-95
2023/04/15 11:57:34;;;;;;;4.10;2.80;;;;;;;;;;4994939;28;20418;-94
2023/04/15 12:00:00;;;;;;;4.30;3.70;;;;;;;;;;4999126;28;20416;-94
2023/04/15 12:02:31;;;;;;;6.20;3.47;;;;;;;;;;4986977;28;20479;-94
2023/04/15 12:05:04;;;;;;;5.70;3.80;;;;;;;;;;4988956;28;20439;-95
2023/04/15 12:07:30;;;;;;;10.40;4.07;;;;;;;;;;4983856;28;20439;-95
2023/04/15 12:09:56;;;;;;;7.97;3.40;;;;;;;;;;5017379;28;20463;-91
2023/04/15 12:12:27;;;;;;;7.60;3.10;;;;;;;;;;4990765;28;20431;-91
2023/04/15 12:14:53;;;;;;;2.50;2.20;;;;;;;;;;4986198;28;20439;-94
2023/04/15 12:17:20;;;;;;;6.27;3.50;;;;;;;;;;4990906;28;20412;-94
2023/04/15 12:19:47;;;;;;;5.97;4.20;;;;;;;;;;4989143;28;20412;-93
2023/04/15 12:22:14;;;;;;;5.67;3.20;;;;;;;;;;4988137;28;20436;-96
2023/04/15 12:24:42;;;;;;;6.50;3.80;;;;;;;;;;4990705;28;20442;-95
2023/04/15 12:27:11;;;;;;;6.57;3.30;;;;;;;;;;5005396;28;20430;-94
2023/04/15 12:29:39;;;;;;;3.60;2.67;;;;;;;;;;4985402;28;20429;-92
2023/04/15 12:34:57;;;;;;;7.80;2.60;;;;;;;;;;5003688;28;20464;-94
2023/04/15 12:37:24;;;;;;;4.73;3.20;;;;;;;;;;4978019;28;20447;-92
2023/04/15 12:39:52;;;;;;;4.13;3.40;;;;;;;;;;4989400;28;20496;-93
2023/04/15 12:42:19;;;;;;;5.33;3.10;;;;;;;;;;4974692;28;20433;-90
2023/04/15 12:44:45;;;;;;;3.80;2.87;;;;;;;;;;4974084;28;20427;-92
2023/04/15 12:47:11;;;;;;;4.27;3.17;;;;;;;;;;4976460;28;21044;-91
2023/04/15 12:49:38;;;;;;;3.40;2.60;;;;;;;;;;4985466;28;20454;-91
2023/04/15 12:52:04;;;;;;;3.97;2.73;;;;;;;;;;4963354;28;20437;-91
2023/04/15 12:54:30;;;;;;;3.70;2.97;;;;;;;;;;4967831;28;20523;-91
2023/04/15 12:56:57;;;;;;;3.87;2.70;;;;;;;;;;4962376;28;20437;-91
2023/04/15 12:59:23;;;;;;;6.33;2.83;;;;;;;;;;4973178;28;20441;-91
2023/04/15 13:01:49;;;;;;;4.90;3.03;;;;;;;;;;4997745;28;20509;-92
2023/04/15 13:04:15;;;;;;;4.00;2.90;;;;;;;;;;4986726;28;20443;-89
2023/04/15 13:06:41;;;;;;;4.00;2.87;;;;;;;;;;4993626;28;20436;-91
2023/04/15 13:09:07;;;;;;;4.40;2.80;;;;;;;;;;4986718;28;20944;-90
2023/04/15 13:11:33;;;;;;;2.63;2.40;;;;;;;;;;4993220;28;20456;-90
2023/04/15 13:14:00;;;;;;;6.43;2.60;;;;;;;;;;4982995;28;20441;-90
2023/04/15 13:16:26;;;;;;;3.87;2.27;;;;;;;;;;4983367;28;20428;-90
2023/04/15 13:18:52;;;;;;;3.60;2.33;;;;;;;;;;4982293;28;20429;-89
2023/04/15 13:21:18;;;;;;;3.47;3.03;;;;;;;;;;4993462;28;20485;-90
2023/04/15 13:23:44;;;;;;;4.40;2.37;;;;;;;;;;4988868;28;21163;-91
2023/04/15 13:26:11;;;;;;;2.87;2.10;;;;;;;;;;5000785;28;20447;-89
2023/04/15 13:28:37;;;;;;;3.13;2.67;;;;;;;;;;4984764;28;20831;-90
2023/04/15 13:31:03;;;;;;;1.97;1.70;;;;;;;;;;5002562;28;20460;-90
2023/04/15 13:33:29;;;;;;;4.20;2.00;;;;;;;;;;4997631;28;20490;-88
2023/04/15 13:35:55;;;;;;;4.17;2.33;;;;;;;;;;4979140;28;20443;-89
2023/04/15 13:38:21;;;;;;;2.53;2.00;;;;;;;;;;4983100;28;20416;-91
2023/04/15 13:40:49;;;;;;;3.47;2.43;;;;;;;;;;4986734;28;20471;-91
2023/04/15 13:43:16;;;;;;;2.60;2.20;;;;;;;;;;4996698;28;20435;-92
2023/04/15 13:45:42;;;;;;;2.43;1.80;;;;;;;;;;4985403;28;20845;-91
2023/04/15 13:48:08;;;;;;;2.53;1.80;;;;;;;;;;4989873;28;20497;-90
2023/04/15 13:50:34;;;;;;;4.37;2.07;;;;;;;;;;4984273;28;20550;-91
2023/04/15 13:53:00;;;;;;;1.60;1.50;;;;;;;;;;5000377;28;20440;-91
2023/04/15 13:55:26;;;;;;;3.20;1.60;;;;;;;;;;4987384;28;20443;-90
2023/04/15 13:57:52;;;;;;;3.97;1.90;;;;;;;;;;4985094;28;20436;-90
2023/04/15 14:00:18;;;;;;;2.10;1.40;;;;;;;;;;4980830;28;20440;-91
2023/04/15 14:02:45;;;;;;;2.10;1.73;;;;;;;;;;4985782;28;21230;-89
2023/04/15 14:05:12;;;;;;;2.70;1.90;;;;;;;;;;4984604;28;20483;-92
2023/04/15 14:07:38;;;;;;;3.50;2.07;;;;;;;;;;5000011;28;20447;-92
2023/04/15 14:10:04;;;;;;;2.83;2.00;;;;;;;;;;4990655;28;20447;-93
2023/04/15 14:12:42;;;;;;;5.93;2.33;;;;;;;;;;4986595;28;20468;-91
2023/04/15 14:15:08;;;;;;;3.23;1.40;;;;;;;;;;5007810;28;20452;-94
2023/04/15 14:38:37;;;;;;;4.40;2.13;;;;;;;;;;1114163;22;20843;-97
2023/04/15 14:41:03;;;;;;;2.00;1.53;;;;;;;;;;4986799;28;20445;-95
2023/04/15 14:43:29;;;;;;;2.10;1.33;;;;;;;;;;5061483;23;20567;-95
2023/04/15 14:45:57;;;;;;;4.90;1.57;;;;;;;;;;5032494;28;20440;-93
2023/04/15 14:48:23;;;;;;;2.77;1.90;;;;;;;;;;5022809;28;20492;-94
2023/04/15 14:50:49;;;;;;;5.13;1.97;;;;;;;;;;5020217;28;20488;-94
2023/04/15 14:53:23;;;;;;;6.30;2.00;;;;;;;;;;5036824;28;20439;-94
2023/04/15 14:55:49;;;;;;;2.23;1.33;;;;;;;;;;5028943;28;20430;-94
2023/04/15 14:58:15;;;;;;;3.07;1.60;;;;;;;;;;5015659;28;20462;-92
2023/04/15 15:00:43;;;;;;;2.00;1.80;;;;;;;;;;5018675;28;20791;-96
2023/04/15 15:03:11;;;;;;;2.53;1.87;;;;;;;;;;5021199;28;20534;-91
2023/04/15 15:05:42;;;;;;;2.53;1.70;;;;;;;;;;5025169;28;20447;-95
2023/04/15 15:08:09;;;;;;;2.17;1.70;;;;;;;;;;5052445;28;20447;-96
2023/04/15 15:10:35;;;;;;;2.70;1.60;;;;;;;;;;5029086;28;20455;-94
2023/04/15 15:13:04;;;;;;;3.07;2.77;;;;;;;;;;5031423;28;20423;-94
2023/04/15 15:15:31;;;;;;;2.33;2.00;;;;;;;;;;5020314;28;20518;-94
2023/04/15 15:17:57;;;;;;;2.17;1.67;;;;;;;;;;5034319;28;20427;-94
2023/04/15 15:20:23;;;;;;;2.30;1.50;;;;;;;;;;5027496;28;20443;-91
2023/04/15 15:22:49;;;;;;;3.10;2.30;;;;;;;;;;5020206;28;20436;-90
2023/04/15 15:25:15;;;;;;;2.30;1.80;;;;;;;;;;5021072;28;20490;-91
2023/04/15 15:27:41;;;;;;;7.50;1.77;;;;;;;;;;5042107;28;20430;-91
2023/04/15 15:30:08;;;;;;;2.40;1.67;;;;;;;;;;5021355;28;20455;-92
2023/04/15 15:32:34;;;;;;;2.90;1.87;;;;;;;;;;5020407;28;20470;-91
2023/04/15 15:35:00;;;;;;;2.47;2.00;;;;;;;;;;5023473;28;20915;-91
2023/04/15 15:37:26;;;;;;;3.30;2.10;;;;;;;;;;5021465;28;20433;-91
2023/04/15 15:39:52;;;;;;;2.30;1.77;;;;;;;;;;5032981;28;20879;-92
2023/04/15 15:42:18;;;;;;;6.33;2.60;;;;;;;;;;5037362;28;20431;-91
2023/04/15 15:44:44;;;;;;;4.83;2.87;;;;;;;;;;5021454;28;20449;-91
2023/04/15 15:47:10;;;;;;;4.00;1.60;;;;;;;;;;5037456;28;22392;-91
2023/04/15 15:49:36;;;;;;;2.97;2.10;;;;;;;;;;5019196;28;20474;-93
2023/04/15 15:52:02;;;;;;;2.30;1.40;;;;;;;;;;5024658;28;20467;-92